createdAt,value
2019-01-19T00:02:10.102Z,98162.11
2019-01-19T00:05:55.784Z,98156.46
2019-01-19T00:09:00.869Z,98150.61
2019-01-19T00:12:20.526Z,98149.58
2019-01-19T00:15:26.296Z,98148.45
2019-01-19T00:19:13.089Z,98145.55
2019-01-19T00:22:34.330Z,98151.85
2019-01-19T00:26:16.973Z,98151.64
2019-01-19T00:29:41.818Z,98155.00
2019-01-19T00:32:52.101Z,98156.81
2019-01-19T00:36:04.266Z,98155.52
2019-01-19T00:39:45.315Z,98156.45
2019-01-19T00:43:01.926Z,98154.84
2019-01-19T00:46:23.738Z,98153.28
2019-01-19T00:49:30.667Z,98148.44
2019-01-19T00:53:08.520Z,98153.49
2019-01-19T00:57:01.302Z,98156.84
2019-01-19T00:59:42.986Z,98156.55
2019-01-19T01:02:58.290Z,98147.84
2019-01-19T01:06:07.805Z,98148.93
2019-01-19T01:09:25.858Z,98148.16
2019-01-19T01:13:20.120Z,98154.34
2019-01-19T01:17:02.529Z,98151.22
2019-01-19T01:20:32.980Z,98154.88
2019-01-19T01:23:48.286Z,98152.81
2019-01-19T01:27:03.146Z,98150.34
2019-01-19T01:30:38.334Z,98151.56
2019-01-19T01:33:56.630Z,98146.81
2019-01-19T01:37:25.248Z,98143.15
2019-01-19T01:40:59.548Z,98136.92
2019-01-19T01:43:53.245Z,98134.48
2019-01-19T01:47:32.555Z,98140.84
2019-01-19T01:50:43.288Z,98135.89
2019-01-19T01:54:15.437Z,98134.55
2019-01-19T01:56:48.017Z,98126.99
2019-01-19T01:59:59.775Z,98131.50
2019-01-19T02:03:33.340Z,98130.17
2019-01-19T02:07:00.902Z,98123.66
2019-01-19T02:10:31.765Z,98122.72
2019-01-19T02:14:06.311Z,98127.27
2019-01-19T02:17:38.385Z,98125.16
2019-01-19T02:21:02.987Z,98120.92
2019-01-19T02:24:23.700Z,98113.42
2019-01-19T02:28:07.916Z,98110.31
2019-01-19T02:31:38.644Z,98111.13
2019-01-19T02:35:37.125Z,98100.41
2019-01-19T02:39:05.128Z,98098.23
2019-01-19T02:42:26.334Z,98100.31
2019-01-19T02:45:39.404Z,98093.88
2019-01-19T02:49:27.111Z,98092.02
2019-01-19T02:52:41.610Z,98092.45
2019-01-19T02:56:15.830Z,98086.14
2019-01-19T02:59:21.271Z,98080.27
2019-01-19T03:02:46.872Z,98078.30
2019-01-19T03:05:58.581Z,98074.42
2019-01-19T03:09:16.347Z,98080.23
2019-01-19T03:12:52.595Z,98082.50
2019-01-19T03:16:33.689Z,98079.31
2019-01-19T03:20:07.546Z,98077.30
2019-01-19T03:23:56.041Z,98081.59
2019-01-19T03:27:03.251Z,98085.17
2019-01-19T03:30:46.337Z,98088.30
2019-01-19T03:34:22.200Z,98087.25
2019-01-19T03:37:55.349Z,98089.39
2019-01-19T03:40:50.713Z,98095.27
2019-01-19T03:44:23.878Z,98092.04
2019-01-19T03:47:59.169Z,98081.68
2019-01-19T03:51:13.581Z,98084.55
2019-01-19T03:54:27.646Z,98082.66
2019-01-19T03:58:02.393Z,98082.15
2019-01-19T04:01:23.198Z,98074.10
2019-01-19T04:04:40.914Z,98080.17
2019-01-19T04:08:02.650Z,98083.82
2019-01-19T04:11:21.562Z,98080.39
2019-01-19T04:15:01.624Z,98073.28
2019-01-19T04:18:29.329Z,98073.66
2019-01-19T04:22:06.238Z,98076.08
2019-01-19T04:25:06.096Z,98076.77
2019-01-19T04:27:38.576Z,98077.52
2019-01-19T04:30:13.445Z,98073.99
2019-01-19T04:32:46.218Z,98075.97
2019-01-19T04:35:18.643Z,98079.92
2019-01-19T04:37:51.124Z,98083.72
2019-01-19T04:40:23.448Z,98082.19
2019-01-19T04:42:56.227Z,98086.69
2019-01-19T04:45:28.715Z,98080.94
2019-01-19T04:48:01.296Z,98081.19
2019-01-19T04:50:33.624Z,98075.27
2019-01-19T04:53:06.304Z,98079.13
2019-01-19T04:55:38.876Z,98075.92
2019-01-19T04:58:11.452Z,98076.36
2019-01-19T05:00:43.875Z,98074.49
2019-01-19T05:03:16.255Z,98066.42
2019-01-19T05:05:48.577Z,98069.67
2019-01-19T05:08:21.042Z,98071.64
2019-01-19T05:10:53.572Z,98068.85
2019-01-19T05:13:25.961Z,98068.16
2019-01-19T05:15:58.282Z,98069.69
2019-01-19T05:18:30.660Z,98067.37
2019-01-19T05:21:03.289Z,98070.42
2019-01-19T05:23:35.856Z,98066.14
2019-01-19T05:26:08.381Z,98066.58
2019-01-19T05:28:40.742Z,98065.04
2019-01-19T05:31:13.268Z,98067.14
2019-01-19T05:33:45.635Z,98065.47
2019-01-19T05:36:18.068Z,98061.84
2019-01-19T05:38:50.644Z,98060.62
2019-01-19T05:41:23.187Z,98055.50
2019-01-19T05:43:55.567Z,98061.38
2019-01-19T05:46:27.896Z,98059.61
2019-01-19T05:49:01.315Z,98063.58
2019-01-19T05:51:33.650Z,98054.83
2019-01-19T05:54:06.467Z,98056.05
2019-01-19T05:56:38.946Z,98053.08
2019-01-19T05:59:11.372Z,98044.78
2019-01-19T06:01:43.814Z,98048.36
2019-01-19T06:04:16.298Z,98050.16
2019-01-19T06:06:48.731Z,98049.77
2019-01-19T06:09:21.099Z,98046.59
2019-01-19T06:11:53.512Z,98045.67
2019-01-19T06:14:26.109Z,98046.50
2019-01-19T06:16:58.632Z,98049.23
2019-01-19T06:19:31.513Z,98048.67
2019-01-19T06:22:04.247Z,98041.75
2019-01-19T06:24:36.636Z,98046.97
2019-01-19T06:27:09.062Z,98044.52
2019-01-19T06:29:41.635Z,98045.80
2019-01-19T06:32:14.068Z,98045.41
2019-01-19T06:34:46.538Z,98048.23
2019-01-19T06:37:18.950Z,98040.25
2019-01-19T06:39:51.438Z,98046.48
2019-01-19T06:42:23.950Z,98046.39
2019-01-19T06:44:56.319Z,98045.47
2019-01-19T06:47:28.753Z,98044.28
2019-01-19T06:50:01.129Z,98042.52
2019-01-19T06:52:33.553Z,98046.82
2019-01-19T06:55:06.511Z,98047.16
2019-01-19T06:57:39.043Z,98048.81
2019-01-19T07:00:15.199Z,98046.31
2019-01-19T07:02:47.829Z,98045.08
2019-01-19T07:05:20.505Z,98052.08
2019-01-19T07:07:53.131Z,98050.55
2019-01-19T07:10:27.262Z,98055.09
2019-01-19T07:12:59.708Z,98051.48
2019-01-19T07:15:32.190Z,98051.50
2019-01-19T07:18:04.627Z,98047.97
2019-01-19T07:20:37.025Z,98046.91
2019-01-19T07:23:09.546Z,98045.76
2019-01-19T07:25:43.333Z,98041.80
2019-01-19T07:28:15.757Z,98038.45
2019-01-19T07:30:48.145Z,98038.89
2019-01-19T07:33:20.571Z,98035.78
2019-01-19T07:35:53.308Z,98035.23
2019-01-19T07:38:25.604Z,98028.77
2019-01-19T07:40:58.121Z,98009.16
2019-01-19T07:43:30.290Z,98013.22
2019-01-19T07:46:03.271Z,98014.58
2019-01-19T07:48:35.611Z,98021.75
2019-01-19T07:51:07.903Z,98023.61
2019-01-19T07:53:40.479Z,98036.48
2019-01-19T07:56:12.987Z,98038.62
2019-01-19T07:58:45.349Z,98044.27
2019-01-19T08:01:17.811Z,98041.47
2019-01-19T08:03:50.240Z,98049.07
2019-01-19T08:06:22.618Z,98047.32
2019-01-19T08:08:55.147Z,98041.28
2019-01-19T08:11:27.498Z,98041.27
2019-01-19T08:13:59.771Z,98037.88
2019-01-19T08:16:32.194Z,98033.86
2019-01-19T08:19:04.661Z,98035.37
2019-01-19T08:21:36.880Z,98035.36
2019-01-19T08:24:09.244Z,98022.13
2019-01-19T08:26:41.454Z,98009.30
2019-01-19T08:29:13.813Z,97997.49
2019-01-19T08:31:46.224Z,97994.02
2019-01-19T08:34:18.568Z,97980.94
2019-01-19T08:36:50.991Z,97964.68
2019-01-19T08:39:23.285Z,97965.26
2019-01-19T08:41:55.773Z,97956.87
2019-01-19T08:44:28.200Z,97953.91
2019-01-19T08:47:00.572Z,97950.17
2019-01-19T08:49:32.999Z,97949.83
2019-01-19T08:52:05.701Z,97948.59
2019-01-19T08:54:38.165Z,97952.22
2019-01-19T08:57:10.833Z,97949.39
2019-01-19T08:59:43.358Z,97952.33
2019-01-19T09:02:15.823Z,97953.44
2019-01-19T09:04:48.143Z,97953.55
2019-01-19T09:07:20.604Z,97948.30
2019-01-19T09:09:52.806Z,97958.22
2019-01-19T09:12:25.030Z,97955.83
2019-01-19T09:14:57.198Z,97952.84
2019-01-19T09:17:29.518Z,97953.20
2019-01-19T09:20:02.700Z,97955.80
2019-01-19T09:22:35.002Z,97957.03
2019-01-19T09:25:08.696Z,97964.56
2019-01-19T09:27:41.201Z,97971.38
2019-01-19T09:30:19.460Z,97978.86
2019-01-19T09:32:52.143Z,97975.52
2019-01-19T09:35:24.609Z,97977.47
2019-01-19T09:37:57.113Z,97983.88
2019-01-19T09:40:29.368Z,97981.47
2019-01-19T09:43:01.867Z,97978.72
2019-01-19T09:45:34.345Z,97979.38
2019-01-19T09:48:07.015Z,97984.14
2019-01-19T09:50:39.477Z,97987.25
2019-01-19T09:53:12.084Z,97984.86
2019-01-19T09:55:44.293Z,97987.72
2019-01-19T09:58:16.703Z,97982.00
2019-01-19T10:00:48.970Z,97982.02
2019-01-19T10:03:21.239Z,97979.55
2019-01-19T10:05:53.508Z,97980.86
2019-01-19T10:08:25.913Z,97973.56
2019-01-19T10:10:58.459Z,97970.81
2019-01-19T10:13:30.756Z,97970.45
2019-01-19T10:16:03.022Z,97972.47
2019-01-19T10:18:35.817Z,97972.20
2019-01-19T10:21:08.358Z,97968.00
2019-01-19T10:23:40.667Z,97967.34
2019-01-19T10:26:12.947Z,97964.83
2019-01-19T10:28:46.909Z,97965.94
2019-01-19T10:31:19.288Z,97962.20
2019-01-19T10:33:51.697Z,97951.58
2019-01-19T10:36:24.836Z,97951.05
2019-01-19T10:38:57.728Z,97957.22
2019-01-19T10:41:29.984Z,97952.86
2019-01-19T10:44:02.197Z,97948.53
2019-01-19T10:46:35.164Z,97943.89
2019-01-19T10:49:07.581Z,97943.83
2019-01-19T10:51:39.940Z,97945.03
2019-01-19T10:54:12.452Z,97938.06
2019-01-19T10:56:44.961Z,97933.72
2019-01-19T10:59:17.274Z,97931.60
2019-01-19T11:01:49.632Z,97919.75
2019-01-19T11:04:22.048Z,97926.13
2019-01-19T11:06:54.346Z,97915.83
2019-01-19T11:09:26.636Z,97912.81
2019-01-19T11:11:58.883Z,97911.48
2019-01-19T11:14:31.289Z,97906.75
2019-01-19T11:17:03.556Z,97902.88
2019-01-19T11:19:35.769Z,97904.72
2019-01-19T11:22:08.237Z,97897.20
2019-01-19T11:24:40.441Z,97897.81
2019-01-19T11:27:12.690Z,97891.96
2019-01-19T11:29:45.102Z,97886.86
2019-01-19T11:32:17.367Z,97878.84
2019-01-19T11:34:49.579Z,97879.92
2019-01-19T11:37:22.037Z,97872.75
2019-01-19T11:39:54.242Z,97875.94
2019-01-19T11:42:26.506Z,97871.55
2019-01-19T11:44:58.714Z,97866.08
2019-01-19T11:47:30.977Z,97863.09
2019-01-19T11:50:03.702Z,97857.88
2019-01-19T11:52:36.188Z,97850.33
2019-01-19T11:55:10.358Z,97845.03
2019-01-19T11:57:42.619Z,97846.50
2019-01-19T12:00:19.539Z,97840.68
2019-01-19T12:02:52.051Z,97840.28
2019-01-19T12:05:24.450Z,97835.41
2019-01-19T12:07:56.908Z,97825.75
2019-01-19T12:10:33.093Z,97810.78
2019-01-19T12:13:05.554Z,97799.35
2019-01-19T12:15:37.774Z,97789.52
2019-01-19T12:18:10.986Z,97768.58
2019-01-19T12:20:53.741Z,97764.47
2019-01-19T12:23:26.005Z,97752.13
2019-01-19T12:25:58.345Z,97752.56
2019-01-19T12:28:30.777Z,97741.09
2019-01-19T12:31:03.443Z,97739.22
2019-01-19T12:33:35.968Z,97738.91
2019-01-19T12:36:08.971Z,97732.68
2019-01-19T12:38:41.401Z,97720.84
2019-01-19T12:41:13.870Z,97713.69
2019-01-19T12:43:46.353Z,97709.46
2019-01-19T12:46:18.840Z,97704.82
2019-01-19T12:48:51.165Z,97710.37
2019-01-19T12:51:23.629Z,97701.47
2019-01-19T12:53:56.014Z,97699.95
2019-01-19T12:56:28.618Z,97697.22
2019-01-19T12:59:01.247Z,97693.25
2019-01-19T13:01:33.824Z,97688.53
2019-01-19T13:04:06.452Z,97682.79
2019-01-19T13:06:55.130Z,97677.93
2019-01-19T13:09:31.833Z,97671.98
2019-01-19T13:12:42.972Z,97672.06
2019-01-19T13:16:16.753Z,97663.66
2019-01-19T13:19:35.097Z,97659.20
2019-01-19T13:23:09.774Z,97655.74
2019-01-19T13:26:48.661Z,97654.76
2019-01-19T13:30:19.803Z,97647.19
2019-01-19T13:33:28.683Z,97646.52
2019-01-19T13:37:00.455Z,97647.14
2019-01-19T13:40:03.282Z,97650.00
2019-01-19T13:43:18.585Z,97646.61
2019-01-19T13:46:27.640Z,97656.80
2019-01-19T13:49:55.512Z,97655.75
2019-01-19T13:53:14.096Z,97648.83
2019-01-19T13:56:55.343Z,97643.45
2019-01-19T14:00:18.707Z,97638.11
2019-01-19T14:03:37.792Z,97652.11
2019-01-19T14:07:13.014Z,97656.66
2019-01-19T14:10:21.036Z,97664.39
2019-01-19T14:13:56.423Z,97663.77
2019-01-19T14:17:28.399Z,97660.48
2019-01-19T14:20:37.724Z,97665.67
2019-01-19T14:23:58.177Z,97669.36
2019-01-19T14:27:59.742Z,97671.72
2019-01-19T14:31:24.179Z,97664.45
2019-01-19T14:35:07.464Z,97661.91
2019-01-19T14:38:19.452Z,97661.45
2019-01-19T14:41:42.093Z,97652.55
2019-01-19T14:45:22.292Z,97654.91
2019-01-19T14:48:38.250Z,97652.52
2019-01-19T14:52:13.356Z,97654.91
2019-01-19T14:55:33.238Z,97640.59
2019-01-19T14:59:04.052Z,97650.41
2019-01-19T15:02:49.577Z,97645.66
2019-01-19T15:06:14.217Z,97648.14
2019-01-19T15:09:25.916Z,97643.68
2019-01-19T15:12:57.403Z,97637.11
2019-01-19T15:16:26.957Z,97641.19
2019-01-19T15:20:02.209Z,97645.98
2019-01-19T15:23:25.668Z,97642.55
2019-01-19T15:27:01.388Z,97639.38
2019-01-19T15:30:15.305Z,97638.73
2019-01-19T15:33:46.211Z,97631.34
2019-01-19T15:36:36.451Z,97627.65
2019-01-19T15:39:37.945Z,97631.73
2019-01-19T15:43:14.529Z,97627.80
2019-01-19T15:46:41.074Z,97630.56
2019-01-19T15:49:57.358Z,97626.00
2019-01-19T15:53:15.280Z,97632.15
2019-01-19T15:56:40.574Z,97633.07
2019-01-19T16:00:12.604Z,97627.74
2019-01-19T16:03:54.597Z,97625.50
2019-01-19T16:07:07.978Z,97627.08
2019-01-19T16:10:46.387Z,97623.75
2019-01-19T16:14:19.704Z,97636.05
2019-01-19T16:17:48.438Z,97637.64
2019-01-19T16:21:10.404Z,97638.94
2019-01-19T16:24:16.170Z,97638.00
2019-01-19T16:27:41.353Z,97641.13
2019-01-19T16:31:08.775Z,97640.84
2019-01-19T16:34:22.162Z,97641.36
2019-01-19T16:37:15.506Z,97644.85
2019-01-19T16:41:15.493Z,97644.03
2019-01-19T16:44:42.054Z,97644.05
2019-01-19T16:48:13.816Z,97644.09
2019-01-19T16:51:52.159Z,97644.91
2019-01-19T16:55:21.976Z,97643.98
2019-01-19T16:58:39.153Z,97647.31
2019-01-19T17:01:45.675Z,97650.70
2019-01-19T17:04:45.185Z,97646.03
2019-01-19T17:08:26.321Z,97646.11
2019-01-19T17:11:58.615Z,97638.40
2019-01-19T17:15:27.988Z,97638.02
2019-01-19T17:18:21.741Z,97636.45
2019-01-19T17:22:14.901Z,97636.64
2019-01-19T17:25:31.538Z,97635.22
2019-01-19T17:28:39.086Z,97635.89
2019-01-19T17:32:24.716Z,97638.69
2019-01-19T17:36:20.627Z,97640.44
2019-01-19T17:40:03.089Z,97639.00
2019-01-19T17:43:45.597Z,97644.98
2019-01-19T17:46:42.190Z,97644.13
2019-01-19T17:49:42.461Z,97648.77
2019-01-19T17:52:38.747Z,97648.36
2019-01-19T17:56:36.389Z,97647.88
2019-01-19T18:00:00.647Z,97655.95
2019-01-19T18:03:20.159Z,97654.75
2019-01-19T18:06:25.669Z,97652.52
2019-01-19T18:10:01.295Z,97649.62
2019-01-19T18:13:30.415Z,97653.89
2019-01-19T18:17:25.820Z,97655.52
2019-01-19T18:20:59.494Z,97654.27
2019-01-19T18:24:25.778Z,97657.22
2019-01-19T18:28:10.793Z,97659.59
2019-01-19T18:31:42.625Z,97661.41
2019-01-19T18:35:05.710Z,97661.24
2019-01-19T18:39:01.472Z,97659.09
2019-01-19T18:41:55.773Z,97664.45
2019-01-19T18:45:30.626Z,97662.95
2019-01-19T18:48:49.707Z,97660.55
2019-01-19T18:52:24.898Z,97659.17
2019-01-19T18:55:57.761Z,97658.37
2019-01-19T18:59:18.681Z,97658.62
2019-01-19T19:02:38.967Z,97650.95
2019-01-19T19:06:08.317Z,97650.86
2019-01-19T19:09:50.450Z,97649.94
2019-01-19T19:13:29.782Z,97654.79
2019-01-19T19:16:17.107Z,97658.01
2019-01-19T19:19:29.017Z,97658.41
2019-01-19T19:22:29.949Z,97659.20
2019-01-19T19:25:52.247Z,97654.88
2019-01-19T19:29:33.021Z,97656.81
2019-01-19T19:32:59.846Z,97650.62
2019-01-19T19:36:37.031Z,97649.82
2019-01-19T19:40:09.947Z,97658.56
2019-01-19T19:43:49.421Z,97652.58
2019-01-19T19:46:52.839Z,97656.73
2019-01-19T19:50:20.131Z,97656.89
2019-01-19T19:52:52.644Z,97649.64
2019-01-19T19:55:22.101Z,97656.22
2019-01-19T19:57:54.456Z,97649.14
2019-01-19T20:00:27.436Z,97644.89
2019-01-19T20:02:59.965Z,97648.04
2019-01-19T20:05:32.642Z,97643.91
2019-01-19T20:08:05.268Z,97643.47
2019-01-19T20:10:37.659Z,97647.70
2019-01-19T20:13:10.198Z,97643.88
2019-01-19T20:15:42.680Z,97649.47
2019-01-19T20:18:15.125Z,97650.95
2019-01-19T20:20:47.798Z,97649.69
2019-01-19T20:23:20.227Z,97646.23
2019-01-19T20:25:52.708Z,97647.56
2019-01-19T20:28:25.145Z,97644.30
2019-01-19T20:30:57.524Z,97647.89
2019-01-19T20:33:30.074Z,97647.42
2019-01-19T20:36:02.651Z,97650.83
2019-01-19T20:38:34.983Z,97652.70
2019-01-19T20:41:07.660Z,97654.55
2019-01-19T20:43:40.200Z,97664.31
2019-01-19T20:46:12.581Z,97662.86
2019-01-19T20:48:45.119Z,97664.44
2019-01-19T20:51:17.503Z,97669.84
2019-01-19T20:53:49.936Z,97669.17
2019-01-19T20:56:22.466Z,97668.19
2019-01-19T20:58:55.093Z,97667.75
2019-01-19T21:01:27.681Z,97669.08
2019-01-19T21:04:00.107Z,97670.72
2019-01-19T21:06:32.592Z,97669.68
2019-01-19T21:09:08.761Z,97671.30
2019-01-19T21:11:41.571Z,97668.75
2019-01-19T21:14:14.003Z,97669.63
2019-01-19T21:16:46.586Z,97665.78
2019-01-19T21:19:18.913Z,97664.60
2019-01-19T21:21:51.493Z,97666.92
2019-01-19T21:24:23.824Z,97662.54
2019-01-19T21:26:56.303Z,97660.45
2019-01-19T21:29:28.730Z,97660.44
2019-01-19T21:32:01.207Z,97660.95
2019-01-19T21:34:33.834Z,97658.98
2019-01-19T21:37:06.535Z,97655.88
2019-01-19T21:39:38.859Z,97659.19
2019-01-19T21:42:11.338Z,97655.70
2019-01-19T21:44:43.659Z,97658.23
2019-01-19T21:47:16.051Z,97660.14
2019-01-19T21:49:48.382Z,97659.89
2019-01-19T21:52:20.864Z,97660.94
2019-01-19T21:54:53.401Z,97658.84
2019-01-19T21:57:25.833Z,97654.56
2019-01-19T21:59:58.262Z,97652.06
2019-01-19T22:02:30.642Z,97653.30
2019-01-19T22:05:03.167Z,97663.39
2019-01-19T22:07:35.774Z,97653.55
2019-01-19T22:10:11.890Z,97653.79
2019-01-19T22:12:44.370Z,97660.37
2019-01-19T22:15:18.600Z,97655.26
2019-01-19T22:17:50.979Z,97655.53
2019-01-19T22:20:23.515Z,97661.37
2019-01-19T22:22:56.092Z,97659.82
2019-01-19T22:25:28.415Z,97658.70
2019-01-19T22:28:00.797Z,97661.28
2019-01-19T22:30:33.329Z,97663.04
2019-01-19T22:33:06.206Z,97664.22
2019-01-19T22:35:38.838Z,97661.64
2019-01-19T22:38:11.331Z,97662.64
2019-01-19T22:40:43.853Z,97660.03
2019-01-19T22:43:21.672Z,97659.06
2019-01-19T22:45:54.102Z,97658.28
2019-01-19T22:48:26.579Z,97657.52
2019-01-19T22:50:59.012Z,97654.06
2019-01-19T22:53:31.600Z,97654.06
2019-01-19T22:56:04.039Z,97659.91
2019-01-19T22:58:36.562Z,97663.62
2019-01-19T23:01:36.080Z,97658.20
2019-01-19T23:04:09.004Z,97663.52
2019-01-19T23:06:41.538Z,97656.89
2019-01-19T23:09:14.215Z,97658.34
2019-01-19T23:11:46.948Z,97663.12
2019-01-19T23:14:19.428Z,97658.55
2019-01-19T23:16:51.858Z,97652.44
2019-01-19T23:19:24.329Z,97652.61
2019-01-19T23:21:56.754Z,97649.47
2019-01-19T23:24:29.428Z,97648.19
2019-01-19T23:27:11.052Z,97649.08
2019-01-19T23:29:43.436Z,97650.88
2019-01-19T23:32:15.867Z,97652.61
2019-01-19T23:34:48.299Z,97652.30
2019-01-19T23:37:20.631Z,97654.05
2019-01-19T23:39:53.004Z,97651.33
2019-01-19T23:42:25.434Z,97650.14
2019-01-19T23:44:57.804Z,97649.45
2019-01-19T23:47:30.331Z,97652.92
2019-01-19T23:50:02.701Z,97647.88
2019-01-19T23:52:35.139Z,97650.83
2019-01-19T23:55:07.998Z,97654.79
2019-01-19T23:57:40.323Z,97647.98
